createdAt,value
2022-09-02T00:14:04.783Z,17.20
2022-09-02T00:23:56.695Z,17.20
2022-09-02T00:36:18.602Z,16.90
2022-09-02T00:41:13.518Z,16.90
2022-09-02T00:46:14.270Z,16.80
2022-09-02T00:48:48.194Z,16.80
2022-09-02T00:53:45.840Z,16.60
2022-09-02T00:56:20.017Z,16.60
2022-09-02T00:58:47.863Z,16.60
2022-09-02T01:06:15.350Z,16.60
2022-09-02T01:08:47.363Z,16.50
2022-09-02T01:16:24.693Z,16.30
2022-09-02T01:23:49.121Z,16.20
2022-09-02T01:26:16.113Z,16.20
2022-09-02T01:31:10.480Z,16.10
2022-09-02T01:38:32.722Z,15.90
2022-09-02T01:48:24.443Z,15.80
2022-09-02T01:58:15.236Z,15.80
2022-09-02T02:05:37.282Z,15.70
2022-09-02T02:08:05.069Z,15.60
2022-09-02T02:30:15.024Z,15.30
2022-09-02T02:42:34.670Z,15.30
2022-09-02T03:02:11.845Z,15.20
2022-09-02T03:09:34.585Z,15.20
2022-09-02T03:22:26.652Z,15.20
2022-09-02T03:24:53.570Z,15.00
2022-09-02T03:27:20.348Z,15.00
2022-09-02T03:44:34.221Z,15.10
2022-09-02T03:49:28.685Z,15.10
2022-09-02T03:51:55.553Z,15.10
2022-09-02T03:56:49.632Z,15.00
2022-09-02T03:59:16.811Z,15.10
2022-09-02T04:09:06.247Z,15.00
2022-09-02T04:11:33.420Z,15.00
2022-09-02T04:14:00.441Z,15.20
2022-09-02T04:17:23.859Z,15.20
2022-09-02T04:20:46.719Z,15.20
2022-09-02T04:25:43.417Z,15.10
2022-09-02T04:33:09.058Z,15.00
2022-09-02T04:38:03.050Z,15.00
2022-09-02T04:45:29.631Z,15.00
2022-09-02T04:47:56.612Z,15.10
2022-09-02T04:55:17.795Z,15.10
2022-09-02T05:00:12.120Z,15.20
2022-09-02T05:12:32.895Z,15.30
2022-09-02T05:15:01.142Z,15.30
2022-09-02T05:19:59.724Z,15.40
2022-09-02T05:24:57.095Z,15.60
2022-09-02T05:27:24.307Z,15.70
2022-09-02T05:29:59.409Z,15.80
2022-09-02T05:32:27.719Z,15.90
2022-09-02T05:34:55.984Z,16.00
2022-09-02T05:39:52.355Z,16.10
2022-09-02T05:42:20.566Z,16.20
2022-09-02T05:44:47.528Z,16.30
2022-09-02T05:49:41.763Z,16.40
2022-09-02T05:54:38.892Z,16.60
2022-09-02T05:57:11.895Z,16.70
2022-09-02T05:59:42.392Z,16.80
2022-09-02T06:02:13.693Z,17.00
2022-09-02T06:07:08.420Z,17.20
2022-09-02T06:14:33.202Z,17.80
2022-09-02T06:17:00.239Z,18.00
2022-09-02T06:22:01.255Z,18.40
2022-09-02T06:26:57.693Z,18.60
2022-09-02T06:29:25.698Z,18.60
2022-09-02T06:31:53.269Z,18.70
2022-09-02T06:34:21.744Z,18.70
2022-09-02T06:36:50.592Z,18.60
2022-09-02T06:39:19.952Z,18.70
2022-09-02T06:44:16.664Z,18.50
2022-09-02T06:49:12.689Z,18.20
2022-09-02T06:54:10.872Z,18.10
2022-09-02T06:56:43.888Z,18.00
2022-09-02T06:59:14.802Z,18.00
2022-09-02T07:04:28.376Z,18.10
2022-09-02T07:06:55.997Z,18.30
2022-09-02T07:12:04.281Z,18.70
2022-09-02T07:17:00.110Z,19.20
2022-09-02T07:19:27.096Z,19.30
2022-09-02T07:24:21.525Z,19.50
2022-09-02T07:29:16.542Z,19.50
2022-09-02T07:31:46.292Z,19.60
2022-09-02T07:36:42.757Z,20.00
2022-09-02T07:39:10.716Z,20.20
2022-09-02T07:41:39.693Z,20.40
2022-09-02T07:44:07.900Z,20.50
2022-09-02T07:46:35.502Z,20.60
2022-09-02T07:49:09.184Z,20.70
2022-09-02T07:51:38.798Z,20.70
2022-09-02T07:54:07.758Z,20.90
2022-09-02T07:56:34.588Z,20.90
2022-09-02T07:59:01.569Z,20.90
2022-09-02T08:01:28.952Z,21.00
2022-09-02T08:09:01.973Z,21.30
2022-09-02T08:11:29.053Z,21.50
2022-09-02T08:13:55.969Z,21.70
2022-09-02T08:16:22.830Z,21.70
2022-09-02T08:18:49.636Z,21.70
2022-09-02T08:21:16.353Z,21.90
2022-09-02T08:26:11.602Z,22.00
2022-09-02T08:28:39.074Z,22.00
2022-09-02T08:31:07.408Z,22.00
2022-09-02T08:33:34.742Z,21.90
2022-09-02T08:38:32.386Z,21.90
2022-09-02T08:43:41.419Z,22.00
2022-09-02T08:46:12.330Z,22.00
2022-09-02T08:51:48.205Z,22.00
2022-09-02T08:54:46.115Z,22.00
2022-09-02T08:57:13.101Z,22.10
2022-09-02T09:02:56.555Z,22.30
2022-09-02T09:05:52.168Z,22.40
2022-09-02T09:08:40.343Z,22.40
2022-09-02T09:11:15.908Z,22.50
2022-09-02T09:14:20.449Z,22.50
2022-09-02T09:16:58.710Z,22.60
2022-09-02T09:19:31.594Z,22.60
2022-09-02T09:22:03.232Z,22.70
2022-09-02T09:24:40.038Z,22.80
2022-09-02T09:27:29.741Z,22.80
2022-09-02T09:29:56.462Z,22.70
2022-09-02T09:32:35.592Z,22.70
2022-09-02T09:37:47.910Z,22.90
2022-09-02T09:40:17.777Z,23.10
2022-09-02T09:42:49.694Z,23.10
2022-09-02T09:45:35.189Z,23.20
2022-09-02T09:48:11.005Z,23.30
2022-09-02T09:50:37.798Z,23.30
2022-09-02T09:53:24.658Z,23.30
2022-09-02T09:55:55.434Z,23.40
2022-09-02T09:58:25.969Z,23.50
2022-09-02T10:00:56.266Z,23.50
2022-09-02T10:03:33.181Z,23.40
2022-09-02T10:06:18.758Z,23.40
2022-09-02T10:09:26.138Z,23.40
2022-09-02T10:12:01.732Z,23.60
2022-09-02T10:14:38.028Z,23.80
2022-09-02T10:17:31.503Z,23.90
2022-09-02T10:20:16.332Z,24.00
2022-09-02T10:25:34.096Z,24.20
2022-09-02T10:28:15.954Z,24.30
2022-09-02T10:30:47.048Z,24.40
2022-09-02T10:33:32.037Z,24.40
2022-09-02T10:36:11.870Z,24.50
2022-09-02T10:38:47.095Z,24.50
2022-09-02T10:41:24.967Z,24.50
2022-09-02T10:44:31.302Z,24.70
2022-09-02T10:47:18.197Z,24.80
2022-09-02T10:50:03.164Z,24.80
2022-09-02T10:52:54.475Z,24.80
2022-09-02T10:55:41.655Z,24.70
2022-09-02T10:58:43.579Z,24.70
2022-09-02T11:01:20.340Z,24.70
2022-09-02T11:04:26.118Z,24.80
2022-09-02T11:07:02.878Z,24.90
2022-09-02T11:12:05.604Z,25.10
2022-09-02T11:15:08.900Z,25.30
2022-09-02T11:17:44.617Z,25.50
2022-09-02T11:20:11.703Z,25.70
2022-09-02T11:23:02.795Z,25.70
2022-09-02T11:25:54.185Z,25.60
2022-09-02T11:28:38.340Z,25.60
2022-09-02T11:31:15.578Z,25.60
2022-09-02T11:36:38.590Z,25.50
2022-09-02T11:39:12.018Z,25.40
2022-09-02T11:41:55.287Z,25.20
2022-09-02T11:44:41.536Z,25.10
2022-09-02T11:47:50.079Z,25.10
2022-09-02T11:50:49.943Z,25.20
2022-09-02T11:53:28.617Z,25.30
2022-09-02T11:55:58.215Z,25.30
2022-09-02T11:58:30.991Z,23.10
2022-09-02T12:00:58.539Z,25.30
2022-09-02T12:03:43.011Z,25.30
2022-09-02T12:06:19.422Z,25.30
2022-09-02T12:11:47.910Z,25.40
2022-09-02T12:14:27.018Z,25.30
2022-09-02T12:17:08.945Z,25.30
2022-09-02T12:19:39.922Z,25.30
2022-09-02T12:22:15.788Z,25.20
2022-09-02T12:24:53.796Z,25.30
2022-09-02T12:27:39.873Z,25.40
2022-09-02T12:30:11.174Z,25.30
2022-09-02T12:32:48.591Z,25.30
2022-09-02T12:35:36.160Z,25.50
2022-09-02T12:38:10.200Z,25.60
2022-09-02T12:40:54.151Z,25.80
2022-09-02T12:43:35.661Z,25.80
2022-09-02T12:46:31.488Z,25.70
2022-09-02T12:49:28.915Z,25.70
2022-09-02T12:52:05.089Z,25.70
2022-09-02T12:54:49.397Z,25.60
2022-09-02T12:57:18.318Z,25.60
2022-09-02T12:59:47.180Z,25.70
2022-09-02T13:05:07.561Z,25.80
2022-09-02T13:07:43.111Z,25.80
2022-09-02T13:12:59.211Z,25.70
2022-09-02T13:15:53.784Z,25.80
2022-09-02T13:18:38.350Z,25.80
2022-09-02T13:21:21.487Z,25.80
2022-09-02T13:24:20.401Z,25.60
2022-09-02T13:27:08.725Z,25.50
2022-09-02T13:30:16.053Z,25.70
2022-09-02T13:32:43.657Z,25.90
2022-09-02T13:35:23.996Z,25.90
2022-09-02T13:37:59.602Z,26.10
2022-09-02T13:40:36.159Z,26.10
2022-09-02T13:43:13.502Z,26.10
2022-09-02T13:45:40.981Z,26.10
2022-09-02T13:48:14.561Z,26.00
2022-09-02T13:51:11.609Z,26.00
2022-09-02T13:53:45.390Z,26.10
2022-09-02T13:56:25.410Z,26.20
2022-09-02T13:58:54.149Z,26.10
2022-09-02T14:01:30.057Z,26.10
2022-09-02T14:03:59.480Z,26.10
2022-09-02T14:06:38.582Z,26.20
2022-09-02T14:09:08.422Z,26.30
2022-09-02T14:11:50.309Z,26.30
2022-09-02T14:14:22.076Z,26.20
2022-09-02T14:16:48.917Z,26.10
2022-09-02T14:19:21.618Z,26.10
2022-09-02T14:21:57.272Z,25.90
2022-09-02T14:24:29.309Z,25.70
2022-09-02T14:27:00.592Z,25.90
2022-09-02T14:29:32.027Z,26.10
2022-09-02T14:32:13.523Z,26.30
2022-09-02T14:34:43.357Z,26.40
2022-09-02T14:37:23.828Z,26.50
2022-09-02T14:39:54.614Z,26.40
2022-09-02T14:44:48.742Z,26.20
2022-09-02T14:47:20.679Z,26.00
2022-09-02T14:49:52.458Z,25.90
2022-09-02T14:52:21.247Z,25.80
2022-09-02T14:54:50.118Z,25.80
2022-09-02T14:57:28.491Z,25.70
2022-09-02T15:00:01.676Z,25.70
2022-09-02T15:04:57.392Z,25.70
2022-09-02T15:07:25.052Z,25.60
2022-09-02T15:09:52.819Z,25.50
2022-09-02T15:12:48.580Z,25.50
2022-09-02T15:15:15.553Z,25.50
2022-09-02T15:17:42.396Z,25.50
2022-09-02T15:20:11.114Z,25.50
2022-09-02T15:25:08.078Z,25.40
2022-09-02T15:27:36.952Z,25.40
2022-09-02T15:30:05.385Z,25.30
2022-09-02T15:39:54.741Z,25.20
2022-09-02T15:42:21.649Z,25.20
2022-09-02T15:44:48.352Z,25.20
2022-09-02T15:47:15.039Z,25.20
2022-09-02T15:57:03.633Z,25.10
2022-09-02T16:02:00.826Z,25.00
2022-09-02T16:04:27.792Z,24.90
2022-09-02T16:09:22.235Z,24.90
2022-09-02T16:11:54.163Z,24.90
2022-09-02T16:14:22.148Z,24.90
2022-09-02T16:19:20.427Z,24.90
2022-09-02T16:26:42.406Z,24.80
2022-09-02T16:29:13.647Z,24.80
2022-09-02T16:31:42.159Z,24.70
2022-09-02T16:34:14.761Z,24.70
2022-09-02T16:36:46.714Z,24.70
2022-09-02T16:39:15.316Z,24.60
2022-09-02T16:41:50.739Z,24.50
2022-09-02T16:44:20.063Z,24.50
2022-09-02T16:46:48.034Z,24.50
2022-09-02T16:49:18.514Z,24.50
2022-09-02T16:51:49.878Z,24.50
2022-09-02T16:54:25.187Z,24.50
2022-09-02T16:59:26.165Z,24.30
2022-09-02T17:04:20.209Z,24.20
2022-09-02T17:11:45.031Z,23.90
2022-09-02T17:14:16.278Z,23.90
2022-09-02T17:16:48.560Z,23.80
2022-09-02T17:19:21.416Z,23.70
2022-09-02T17:21:49.897Z,23.70
2022-09-02T17:24:18.123Z,23.60
2022-09-02T17:26:47.951Z,23.50
2022-09-02T17:29:47.129Z,23.50
2022-09-02T17:34:33.676Z,23.30
2022-09-02T17:37:00.682Z,23.20
2022-09-02T17:39:27.540Z,23.10
2022-09-02T17:44:33.437Z,23.00
2022-09-02T17:47:00.674Z,22.80
2022-09-02T17:49:28.520Z,22.80
2022-09-02T17:51:55.434Z,22.70
2022-09-02T17:57:21.170Z,22.40
2022-09-02T17:59:47.912Z,22.20
2022-09-02T18:02:35.839Z,22.10
2022-09-02T18:07:50.782Z,21.90
2022-09-02T18:15:17.525Z,21.60
2022-09-02T18:17:50.123Z,21.60
2022-09-02T18:20:37.853Z,21.40
2022-09-02T18:23:16.877Z,21.40
2022-09-02T18:26:02.107Z,21.30
2022-09-02T18:28:43.003Z,21.20
2022-09-02T18:31:47.583Z,21.20
2022-09-02T18:34:32.930Z,21.10
2022-09-02T18:37:30.427Z,21.00
2022-09-02T18:40:02.976Z,20.90
2022-09-02T18:42:57.263Z,20.80
2022-09-02T18:45:29.130Z,20.80
2022-09-02T18:48:16.999Z,20.80
2022-09-02T18:50:56.929Z,20.70
2022-09-02T18:53:30.068Z,20.70
2022-09-02T18:56:01.989Z,20.70
2022-09-02T18:58:38.452Z,20.70
2022-09-02T19:01:22.073Z,20.70
2022-09-02T19:03:49.187Z,20.60
2022-09-02T19:06:22.611Z,20.50
2022-09-02T19:08:58.592Z,20.50
2022-09-02T19:11:27.218Z,20.30
2022-09-02T19:14:06.083Z,20.30
2022-09-02T19:16:36.628Z,20.20
2022-09-02T19:19:04.570Z,20.10
2022-09-02T19:21:36.879Z,20.10
2022-09-02T19:24:08.546Z,19.90
2022-09-02T19:26:37.751Z,19.80
2022-09-02T19:29:07.153Z,19.70
2022-09-02T19:31:35.661Z,19.70
2022-09-02T19:34:04.325Z,19.60
2022-09-02T19:36:32.979Z,19.50
2022-09-02T19:39:00.228Z,19.50
2022-09-02T19:43:55.165Z,19.40
2022-09-02T19:47:04.078Z,19.40
2022-09-02T19:49:09.485Z,19.40
2022-09-02T19:51:36.406Z,19.40
2022-09-02T19:54:03.888Z,19.30
2022-09-02T19:58:59.388Z,19.20
2022-09-02T20:03:53.658Z,19.00
2022-09-02T20:08:48.327Z,19.10
2022-09-02T20:11:15.727Z,19.10
2022-09-02T20:16:22.032Z,19.10
2022-09-02T20:18:51.302Z,19.10
2022-09-02T20:21:31.089Z,19.10
2022-09-02T20:24:08.250Z,19.10
2022-09-02T20:27:21.194Z,19.00
2022-09-02T20:29:48.008Z,18.90
2022-09-02T20:32:23.526Z,18.80
2022-09-02T20:34:53.117Z,18.80
2022-09-02T20:37:50.817Z,18.70
2022-09-02T20:40:46.739Z,18.60
2022-09-02T20:43:52.304Z,18.60
2022-09-02T20:46:22.209Z,18.60
2022-09-02T20:49:17.520Z,18.50
2022-09-02T20:51:59.485Z,18.50
2022-09-02T20:54:36.961Z,18.60
2022-09-02T20:57:10.216Z,18.50
2022-09-02T20:59:38.414Z,18.50
2022-09-02T21:02:08.034Z,18.40
2022-09-02T21:04:39.164Z,18.40
2022-09-02T21:07:14.920Z,18.30
2022-09-02T21:10:09.327Z,18.20
2022-09-02T21:12:46.512Z,18.10
2022-09-02T21:20:49.672Z,18.00
2022-09-02T21:23:38.434Z,18.00
2022-09-02T21:26:18.260Z,17.90
2022-09-02T21:28:52.540Z,17.90
2022-09-02T21:31:33.064Z,17.90
2022-09-02T21:34:05.062Z,17.90
2022-09-02T21:36:33.327Z,17.80
2022-09-02T21:44:17.092Z,17.80
2022-09-02T21:51:49.723Z,17.70
2022-09-02T21:59:33.143Z,17.70
2022-09-02T22:02:21.229Z,17.60
2022-09-02T22:05:12.059Z,17.60
2022-09-02T22:07:51.113Z,17.60
2022-09-02T22:10:29.777Z,17.60
2022-09-02T22:13:01.233Z,17.60
2022-09-02T22:15:57.965Z,17.60
2022-09-02T22:18:39.256Z,17.40
2022-09-02T22:21:13.029Z,17.40
2022-09-02T22:26:49.978Z,17.40
2022-09-02T22:29:27.030Z,17.50
2022-09-02T22:31:58.457Z,17.30
2022-09-02T22:34:28.836Z,17.40
2022-09-02T22:39:51.005Z,17.30
2022-09-02T22:42:41.384Z,17.20
2022-09-02T22:45:52.641Z,15.70
2022-09-02T22:48:42.942Z,17.10
2022-09-02T22:52:11.829Z,17.10
2022-09-02T22:57:30.502Z,17.00
2022-09-02T23:02:39.191Z,16.90
2022-09-02T23:05:44.778Z,16.80
2022-09-02T23:08:13.653Z,16.80
2022-09-02T23:10:50.370Z,16.80
2022-09-02T23:13:36.351Z,16.70
2022-09-02T23:16:25.963Z,16.60
2022-09-02T23:19:04.803Z,16.50
2022-09-02T23:21:45.516Z,16.40
2022-09-02T23:24:33.615Z,16.40
2022-09-02T23:29:33.977Z,16.40
2022-09-02T23:34:46.578Z,16.40
2022-09-02T23:37:40.418Z,16.40
2022-09-02T23:40:26.578Z,16.30
2022-09-02T23:45:24.834Z,16.10
2022-09-02T23:47:58.064Z,16.10
2022-09-02T23:50:37.709Z,16.00
2022-09-02T23:53:16.014Z,16.10
2022-09-02T23:56:07.407Z,16.10
2022-09-02T23:58:46.045Z,16.20
